Time;durP1;ratioP1;P1;durP2;ratioP2;P2;SDS_P1;SDS_P2;PMS_P1;PMS_P2;Temp;Humidity;BMP_temperature;BMP_pressure;BME280_temperature;BME280_humidity;BME280_pressure;Samples;Min_cycle;Max_cycle;Signal;HPM_P1;HPM_P2
2023/10/25 00:00:36;;;;;;;24.67;17.42;;;8.30;99.90;;;;;;5091334;28;20487;-87
2023/10/25 00:03:24;;;;;;;17.30;11.98;;;8.30;99.90;;;;;;5106006;28;20058;-87
2023/10/25 00:06:13;;;;;;;21.40;14.63;;;8.30;99.90;;;;;;5112427;27;20172;-85
2023/10/25 00:09:01;;;;;;;27.27;17.42;;;8.30;99.90;;;;;;5092613;28;20054;-86
2023/10/25 00:11:50;;;;;;;486.95;35.70;;;8.30;99.90;;;;;;5102029;28;20454;-87
2023/10/25 00:14:42;;;;;;;217.70;22.90;;;8.30;99.90;;;;;;5074731;28;20048;-87
2023/10/25 00:17:32;;;;;;;28.23;18.00;;;8.20;99.90;;;;;;5101233;28;20040;-86
2023/10/25 00:20:21;;;;;;;26.13;17.45;;;8.20;99.90;;;;;;5085893;28;20362;-85
2023/10/25 00:23:13;;;;;;;26.10;16.63;;;8.10;99.90;;;;;;5077303;28;20043;-86
2023/10/25 00:26:00;;;;;;;26.57;17.30;;;8.00;99.90;;;;;;5075755;28;20035;-86
2023/10/25 00:28:48;;;;;;;22.88;17.35;;;7.90;99.90;;;;;;5075413;28;20063;-86
2023/10/25 00:31:41;;;;;;;728.05;55.85;;;7.80;99.90;;;;;;5078535;28;20050;-86
2023/10/25 00:34:28;;;;;;;147.32;25.92;;;8.10;99.90;;;;;;5086368;28;20054;-85
2023/10/25 00:37:18;;;;;;;204.52;29.65;;;8.20;99.90;;;;;;5088025;28;20048;-86
2023/10/25 00:40:08;;;;;;;34.28;20.60;;;8.20;99.90;;;;;;5091047;28;20052;-86
2023/10/25 00:43:21;;;;;;;24.85;17.77;;;8.30;99.90;;;;;;5081232;28;20040;-86
2023/10/25 00:46:12;;;;;;;;;;;8.30;99.90;;;;;;5063959;28;20051;-86
2023/10/25 00:49:00;;;;;;;20.85;14.90;;;8.30;99.90;;;;;;5068312;28;20016;-86
2023/10/25 00:51:48;;;;;;;21.35;14.82;;;8.40;99.90;;;;;;5094227;28;20032;-86
2023/10/25 00:54:38;;;;;;;26.50;15.65;;;8.40;99.90;;;;;;5104667;28;20502;-87
2023/10/25 00:57:28;;;;;;;24.75;15.88;;;8.40;99.90;;;;;;5100455;28;20494;-85
2023/10/25 01:00:18;;;;;;;21.92;14.52;;;8.30;99.90;;;;;;5095242;28;20050;-86
2023/10/25 01:03:07;;;;;;;23.33;14.80;;;8.40;99.90;;;;;;5077104;28;20100;-85
2023/10/25 01:05:57;;;;;;;18.80;13.80;;;8.30;99.90;;;;;;5103958;28;20087;-86
2023/10/25 01:08:44;;;;;;;19.02;13.05;;;8.20;99.90;;;;;;5074697;28;20031;-86
2023/10/25 01:11:32;;;;;;;20.45;14.13;;;8.20;99.90;;;;;;5088548;28;20059;-86
2023/10/25 01:14:26;;;;;;;19.27;13.43;;;8.20;99.90;;;;;;5097134;28;20375;-87
2023/10/25 01:17:14;;;;;;;15.55;11.82;;;8.20;99.90;;;;;;5079844;28;20135;-86
2023/10/25 01:20:02;;;;;;;17.75;12.38;;;8.30;99.90;;;;;;5073336;28;20438;-85
2023/10/25 01:22:49;;;;;;;18.15;13.27;;;8.30;99.90;;;;;;5078855;28;20118;-85
2023/10/25 01:25:37;;;;;;;16.60;11.50;;;8.40;99.90;;;;;;5105404;28;20463;-85
2023/10/25 01:28:25;;;;;;;17.08;12.25;;;8.50;99.90;;;;;;5096980;28;20425;-84
2023/10/25 01:31:14;;;;;;;15.38;12.38;;;8.50;99.90;;;;;;5063869;28;20040;-87
2023/10/25 01:34:02;;;;;;;17.23;12.80;;;8.50;99.90;;;;;;5077420;28;20041;-86
2023/10/25 01:36:49;;;;;;;15.32;12.95;;;8.50;99.90;;;;;;5070431;28;20040;-85
2023/10/25 01:39:39;;;;;;;16.50;12.90;;;8.50;99.90;;;;;;5089730;28;20062;-86
2023/10/25 01:42:27;;;;;;;16.60;12.05;;;8.50;99.90;;;;;;5075757;28;20059;-85
2023/10/25 01:45:19;;;;;;;14.15;10.30;;;8.50;99.90;;;;;;5075620;28;20040;-83
2023/10/25 01:48:06;;;;;;;15.63;11.68;;;8.50;99.90;;;;;;5078476;28;20036;-87
2023/10/25 01:50:56;;;;;;;12.73;10.43;;;8.50;99.90;;;;;;5074806;28;20047;-87
2023/10/25 01:53:45;;;;;;;15.07;11.35;;;8.40;99.90;;;;;;5083687;28;20040;-87
2023/10/25 01:56:38;;;;;;;19.48;12.15;;;8.40;99.90;;;;;;5094351;28;20370;-87
2023/10/25 01:59:28;;;;;;;19.30;13.18;;;8.50;99.90;;;;;;5073536;28;20039;-87
2023/10/25 02:02:16;;;;;;;19.27;12.23;;;8.40;99.90;;;;;;5087099;28;20470;-87
2023/10/25 02:05:08;;;;;;;19.05;12.65;;;8.40;99.90;;;;;;5079940;28;20130;-86
2023/10/25 02:07:56;;;;;;;17.45;11.90;;;8.50;99.90;;;;;;5080090;28;20085;-87
2023/10/25 02:10:43;;;;;;;16.42;12.85;;;8.50;99.90;;;;;;5087005;28;20444;-87
2023/10/25 02:13:36;;;;;;;17.67;13.07;;;8.60;99.90;;;;;;5089266;28;20055;-87
2023/10/25 02:16:23;;;;;;;19.42;13.55;;;8.60;99.90;;;;;;5067324;28;20075;-86
2023/10/25 02:19:10;;;;;;;17.65;13.70;;;8.60;99.90;;;;;;5084315;28;20680;-86
2023/10/25 02:22:00;;;;;;;16.73;12.65;;;8.60;99.90;;;;;;5103550;28;20051;-87
2023/10/25 02:24:49;;;;;;;21.38;13.77;;;8.50;99.90;;;;;;5071395;28;20119;-85
2023/10/25 02:27:39;;;;;;;19.65;13.05;;;8.50;99.90;;;;;;5077987;28;20040;-85
2023/10/25 02:30:29;;;;;;;19.38;12.80;;;8.40;99.90;;;;;;5098242;28;20036;-81
2023/10/25 02:33:16;;;;;;;25.50;14.38;;;8.40;99.90;;;;;;5093645;28;20055;-85
2023/10/25 02:36:06;;;;;;;19.40;12.75;;;8.20;99.90;;;;;;5071892;28;20056;-83
2023/10/25 02:38:55;;;;;;;19.10;12.82;;;8.20;99.90;;;;;;5080207;28;20420;-85
2023/10/25 02:41:43;;;;;;;19.55;14.00;;;8.10;99.90;;;;;;5094660;28;20055;-86
2023/10/25 02:44:33;;;;;;;21.27;13.52;;;8.00;99.90;;;;;;5084018;28;20502;-85
2023/10/25 02:47:20;;;;;;;18.88;13.10;;;7.80;99.90;;;;;;5077320;28;20036;-86
2023/10/25 02:50:10;;;;;;;18.60;12.35;;;7.70;99.90;;;;;;5091695;28;20040;-86
2023/10/25 02:52:57;;;;;;;18.08;12.68;;;7.60;99.90;;;;;;5077524;28;20226;-85
2023/10/25 02:55:47;;;;;;;17.33;12.48;;;7.60;99.90;;;;;;5082627;28;20048;-86
2023/10/25 02:58:34;;;;;;;21.05;13.18;;;7.60;99.90;;;;;;5070167;28;20041;-85
2023/10/25 03:01:25;;;;;;;20.48;12.82;;;7.50;99.90;;;;;;5080026;28;20052;-85
2023/10/25 03:04:14;;;;;;;17.00;12.02;;;7.40;99.90;;;;;;5076294;28;20054;-86
2023/10/25 03:07:02;;;;;;;21.10;14.15;;;7.40;99.90;;;;;;5082045;28;20433;-86
2023/10/25 03:09:52;;;;;;;22.88;14.52;;;7.40;99.90;;;;;;5066156;28;20048;-85
2023/10/25 03:12:39;;;;;;;24.38;15.32;;;7.40;99.90;;;;;;5079023;28;20047;-86
2023/10/25 03:15:29;;;;;;;111.32;19.15;;;7.40;99.90;;;;;;5089990;28;20054;-86
2023/10/25 03:18:16;;;;;;;729.55;37.88;;;7.50;99.90;;;;;;5082319;28;20135;-87
2023/10/25 03:21:11;;;;;;;313.40;19.30;;;7.30;99.90;;;;;;5091885;28;20048;-87
2023/10/25 03:24:01;;;;;;;50.25;9.18;;;7.30;99.90;;;;;;5088503;28;20060;-87
2023/10/25 03:26:48;;;;;;;172.10;15.35;;;7.20;99.90;;;;;;5093285;28;20036;-87
2023/10/25 03:29:39;;;;;;;19.83;11.75;;;7.10;99.90;;;;;;5058202;28;20131;-86
2023/10/25 03:32:29;;;;;;;75.90;13.40;;;6.90;99.90;;;;;;5090651;28;20135;-85
2023/10/25 03:35:17;;;;;;;25.83;13.00;;;6.80;99.90;;;;;;5076301;28;20040;-86
2023/10/25 03:38:04;;;;;;;21.00;12.57;;;6.70;99.90;;;;;;5089915;28;20048;-84
2023/10/25 03:41:08;;;;;;;16.20;10.63;;;6.70;99.90;;;;;;5068383;28;20036;-86
2023/10/25 03:43:55;;;;;;;30.73;13.55;;;6.80;99.90;;;;;;5095490;28;20088;-87
2023/10/25 03:46:44;;;;;;;25.98;14.60;;;7.10;99.90;;;;;;5084281;28;20062;-87
2023/10/25 03:49:31;;;;;;;23.08;13.57;;;7.10;99.90;;;;;;5079123;28;20385;-85
2023/10/25 03:52:19;;;;;;;17.60;12.15;;;7.20;99.90;;;;;;5083624;28;20483;-85
2023/10/25 03:55:07;;;;;;;19.40;12.52;;;7.20;99.90;;;;;;5104454;28;20051;-85
2023/10/25 03:57:54;;;;;;;20.52;12.07;;;7.30;99.90;;;;;;5096920;28;20132;-84
2023/10/25 04:00:44;;;;;;;23.15;12.23;;;7.40;99.90;;;;;;5095227;28;20419;-85
2023/10/25 04:03:31;;;;;;;19.42;13.45;;;7.30;99.90;;;;;;5091188;28;20043;-84
2023/10/25 04:06:19;;;;;;;25.60;13.15;;;7.30;99.90;;;;;;5104827;28;20051;-84
2023/10/25 04:09:08;;;;;;;24.35;11.90;;;7.20;99.90;;;;;;5106290;28;20044;-85
2023/10/25 04:11:55;;;;;;;18.33;11.77;;;7.00;99.90;;;;;;5094255;28;20059;-84
2023/10/25 04:14:46;;;;;;;15.68;10.38;;;6.80;99.90;;;;;;5103598;28;20056;-84
2023/10/25 04:17:33;;;;;;;18.30;10.05;;;6.60;99.90;;;;;;5103302;28;20044;-86
2023/10/25 04:20:20;;;;;;;40.53;10.60;;;6.50;99.90;;;;;;5087330;28;20045;-85
2023/10/25 04:23:08;;;;;;;148.43;15.77;;;6.40;99.90;;;;;;5088657;28;20059;-84
2023/10/25 04:26:09;;;;;;;48.35;11.15;;;6.30;99.90;;;;;;5100244;28;20460;-85
2023/10/25 04:28:56;;;;;;;27.40;10.82;;;6.10;99.90;;;;;;5091519;28;20051;-83
2023/10/25 04:31:43;;;;;;;82.78;12.55;;;6.10;99.90;;;;;;5079954;28;20036;-84
2023/10/25 04:34:33;;;;;;;44.03;10.68;;;6.10;99.90;;;;;;5089445;28;20059;-85
2023/10/25 04:37:20;;;;;;;17.83;9.57;;;6.00;99.90;;;;;;5089702;28;20060;-84
2023/10/25 04:40:08;;;;;;;20.77;11.65;;;5.90;99.90;;;;;;5074944;28;20389;-79
2023/10/25 04:42:57;;;;;;;21.63;10.85;;;5.70;99.90;;;;;;5064892;28;20128;-83
2023/10/25 04:45:48;;;;;;;109.38;15.32;;;5.70;99.90;;;;;;5094215;28;20193;-83
2023/10/25 04:48:35;;;;;;;467.20;28.65;;;5.80;99.90;;;;;;5075857;28;20052;-83
2023/10/25 04:51:23;;;;;;;381.73;25.92;;;5.80;99.90;;;;;;5071793;28;20048;-84
2023/10/25 04:54:10;;;;;;;155.50;18.73;;;5.80;99.90;;;;;;5090717;28;20042;-83
2023/10/25 04:56:58;;;;;;;27.50;11.98;;;5.70;99.90;;;;;;5095883;28;20040;-85
2023/10/25 04:59:45;;;;;;;86.75;17.17;;;5.60;99.90;;;;;;5103873;28;20359;-84
2023/10/25 05:02:38;;;;;;;29.08;10.85;;;5.50;99.90;;;;;;5089935;28;20044;-84
2023/10/25 05:05:26;;;;;;;60.15;12.93;;;5.50;99.90;;;;;;5099490;28;20047;-85
2023/10/25 05:08:14;;;;;;;106.28;12.57;;;5.50;99.90;;;;;;5081035;28;20070;-86
2023/10/25 05:11:05;;;;;;;61.30;13.13;;;5.50;99.90;;;;;;5091089;28;20047;-83
2023/10/25 05:13:55;;;;;;;104.28;14.27;;;5.50;99.90;;;;;;5097609;28;20060;-85
2023/10/25 05:16:45;;;;;;;98.82;14.98;;;5.50;99.90;;;;;;5088077;28;20195;-85
2023/10/25 05:19:35;;;;;;;50.13;13.48;;;5.50;99.90;;;;;;5082584;28;20104;-86
2023/10/25 05:22:27;;;;;;;90.22;14.38;;;5.50;99.90;;;;;;5091040;28;20083;-85
2023/10/25 05:25:15;;;;;;;51.88;15.48;;;5.40;99.90;;;;;;5067511;28;20051;-85
2023/10/25 05:28:06;;;;;;;67.57;17.00;;;5.40;99.90;;;;;;5084121;28;20083;-86
2023/10/25 05:30:55;;;;;;;75.68;19.08;;;5.40;99.90;;;;;;5090241;28;20044;-85
2023/10/25 05:33:42;;;;;;;33.05;14.73;;;5.40;99.90;;;;;;5097250;28;20055;-83
2023/10/25 05:36:30;;;;;;;82.72;17.73;;;5.30;99.90;;;;;;5094301;28;20179;-85
2023/10/25 05:39:18;;;;;;;43.45;16.98;;;5.20;99.90;;;;;;5092713;28;20457;-85
2023/10/25 05:42:08;;;;;;;28.25;15.60;;;5.20;99.90;;;;;;5089640;28;20052;-84
2023/10/25 05:44:56;;;;;;;29.50;13.82;;;5.10;99.90;;;;;;5099502;28;20055;-86
2023/10/25 05:47:43;;;;;;;23.55;12.80;;;5.10;99.90;;;;;;5105007;28;20044;-83
2023/10/25 05:50:31;;;;;;;26.98;15.30;;;5.10;99.90;;;;;;5093424;28;20120;-85
2023/10/25 05:53:21;;;;;;;26.00;15.52;;;5.10;99.90;;;;;;5097410;28;20633;-87
2023/10/25 05:56:12;;;;;;;32.50;18.00;;;5.20;99.90;;;;;;5094233;28;20131;-86
2023/10/25 05:59:02;;;;;;;39.60;21.15;;;5.30;99.90;;;;;;5085104;28;20052;-85
2023/10/25 06:01:57;;;;;;;46.58;24.40;;;5.50;99.90;;;;;;5088091;28;20040;-87
2023/10/25 06:04:44;;;;;;;50.10;26.58;;;5.60;99.90;;;;;;5082060;28;20428;-87
2023/10/25 06:07:32;;;;;;;54.80;25.90;;;5.80;99.90;;;;;;5083628;28;20044;-87
2023/10/25 06:10:20;;;;;;;36.65;21.92;;;5.90;99.90;;;;;;5076655;28;20321;-84
2023/10/25 06:13:09;;;;;;;45.22;23.63;;;6.20;99.90;;;;;;5087754;28;20036;-87
2023/10/25 06:15:56;;;;;;;43.13;23.17;;;6.30;99.90;;;;;;5065799;28;20044;-79
2023/10/25 06:18:44;;;;;;;43.63;22.35;;;6.30;99.90;;;;;;5073894;28;20177;-87
2023/10/25 06:21:33;;;;;;;43.15;21.40;;;6.30;99.90;;;;;;5080467;28;20127;-87
2023/10/25 06:24:21;;;;;;;33.80;20.55;;;6.30;99.90;;;;;;5094631;28;20062;-84
2023/10/25 06:27:10;;;;;;;42.15;22.20;;;6.30;99.90;;;;;;5085880;28;20045;-85
2023/10/25 06:30:00;;;;;;;39.67;21.27;;;6.30;99.90;;;;;;5085197;28;20344;-86
2023/10/25 06:32:47;;;;;;;70.72;31.67;;;6.30;99.90;;;;;;5079204;28;20044;-84
2023/10/25 06:35:37;;;;;;;78.43;33.85;;;6.30;99.90;;;;;;5095566;28;20430;-86
2023/10/25 06:38:26;;;;;;;81.75;33.42;;;6.30;99.90;;;;;;5082957;28;20399;-86
2023/10/25 06:41:19;;;;;;;62.67;28.00;;;6.30;99.90;;;;;;5093531;28;20478;-87
2023/10/25 06:44:07;;;;;;;67.70;28.98;;;6.20;99.90;;;;;;5084628;28;20341;-86
2023/10/25 06:46:54;;;;;;;63.70;27.20;;;6.30;99.90;;;;;;5094439;28;20055;-87
2023/10/25 06:49:42;;;;;;;53.78;26.35;;;6.30;99.90;;;;;;5077443;28;20441;-87
2023/10/25 06:52:30;;;;;;;45.30;23.58;;;6.40;99.90;;;;;;5088311;28;20040;-85
2023/10/25 06:55:17;;;;;;;61.63;26.83;;;6.80;99.90;;;;;;5094467;28;20736;-86
2023/10/25 06:58:05;;;;;;;47.20;22.30;;;7.30;99.90;;;;;;5093954;28;20055;-82
2023/10/25 07:00:56;;;;;;;133.35;29.15;;;7.70;99.90;;;;;;5088656;28;20511;-85
2023/10/25 07:03:50;;;;;;;491.77;57.88;;;8.30;99.90;;;;;;5094331;28;20044;-86
2023/10/25 07:06:40;;;;;;;45.88;17.35;;;8.60;99.90;;;;;;5062412;28;20043;-86
2023/10/25 07:09:31;;;;;;;21.70;13.60;;;9.10;99.90;;;;;;5081353;28;20059;-86
2023/10/25 07:12:20;;;;;;;24.90;15.52;;;8.30;99.90;;;;;;5082816;28;20054;-84
2023/10/25 07:15:12;;;;;;;21.83;14.05;;;8.30;99.90;;;;;;5095823;28;20036;-88
2023/10/25 07:18:00;;;;;;;25.38;15.73;;;8.50;99.90;;;;;;5075806;28;20040;-86
2023/10/25 07:20:51;;;;;;;33.47;20.27;;;8.50;99.90;;;;;;5088007;28;20052;-86
2023/10/25 07:23:40;;;;;;;32.22;19.35;;;8.30;99.90;;;;;;5076524;28;20048;-86
2023/10/25 07:26:28;;;;;;;36.40;20.42;;;8.40;99.90;;;;;;5084777;28;20052;-88
2023/10/25 07:29:15;;;;;;;34.10;20.25;;;8.70;99.90;;;;;;5094518;28;20040;-87
2023/10/25 07:32:03;;;;;;;36.70;20.90;;;8.90;99.90;;;;;;5092850;28;20127;-85
2023/10/25 07:34:51;;;;;;;36.78;19.60;;;9.10;99.90;;;;;;5081195;28;20048;-88
2023/10/25 07:37:39;;;;;;;34.40;19.10;;;9.20;99.90;;;;;;5084035;28;20127;-88
2023/10/25 07:40:27;;;;;;;29.30;19.05;;;9.20;99.90;;;;;;5092584;28;20044;-84
2023/10/25 07:43:14;;;;;;;25.73;18.52;;;9.30;99.90;;;;;;5091099;28;20048;-85
2023/10/25 07:46:02;;;;;;;30.77;18.52;;;9.50;99.90;;;;;;5076741;28;20385;-85
2023/10/25 07:48:52;;;;;;;24.20;17.08;;;9.70;99.90;;;;;;5089384;28;20036;-84
2023/10/25 07:51:39;;;;;;;29.50;16.90;;;9.50;99.90;;;;;;5090737;28;20039;-80
2023/10/25 07:54:27;;;;;;;26.55;16.80;;;9.40;99.90;;;;;;5081224;28;20119;-84
2023/10/25 07:57:14;;;;;;;21.05;15.13;;;9.30;99.90;;;;;;5087557;28;20059;-85
2023/10/25 08:00:22;;;;;;;25.10;14.57;;;9.20;99.90;;;;;;5084476;28;20048;-84
2023/10/25 08:03:12;;;;;;;20.73;15.38;;;9.30;99.90;;;;;;5093329;28;20136;-82
2023/10/25 08:06:00;;;;;;;19.00;14.05;;;9.60;99.90;;;;;;5075499;28;20040;-87
2023/10/25 08:08:51;;;;;;;17.40;12.90;;;9.90;99.90;;;;;;5090279;28;20349;-86
2023/10/25 08:11:38;;;;;;;16.60;12.40;;;10.10;99.90;;;;;;5085334;28;20036;-87
2023/10/25 08:14:28;;;;;;;15.30;11.38;;;10.20;99.90;;;;;;5083424;28;20044;-85
2023/10/25 08:17:15;;;;;;;13.10;9.90;;;10.20;99.90;;;;;;5089129;28;20100;-86
2023/10/25 08:20:05;;;;;;;9.00;7.95;;;10.30;99.90;;;;;;5097910;28;20526;-84
2023/10/25 08:22:53;;;;;;;9.00;7.43;;;10.20;99.90;;;;;;5101028;28;20052;-86
2023/10/25 08:25:41;;;;;;;7.30;6.47;;;10.20;99.90;;;;;;5101739;28;20052;-86
2023/10/25 08:28:34;;;;;;;8.20;5.57;;;10.30;99.90;;;;;;5075733;28;20040;-85
2023/10/25 08:31:23;;;;;;;6.32;5.57;;;10.40;99.90;;;;;;5083792;28;20083;-87
2023/10/25 08:34:11;;;;;;;11.57;7.85;;;10.40;99.90;;;;;;5100851;28;20040;-87
2023/10/25 08:36:58;;;;;;;5.65;4.82;;;10.40;99.90;;;;;;5070846;28;20455;-82
2023/10/25 08:39:46;;;;;;;5.15;4.60;;;10.40;99.90;;;;;;5081235;28;20048;-86
2023/10/25 08:42:36;;;;;;;4.80;4.40;;;10.40;99.90;;;;;;5083764;28;20052;-86
2023/10/25 08:45:24;;;;;;;5.00;4.50;;;10.40;99.90;;;;;;5088939;28;20131;-87
2023/10/25 08:48:12;;;;;;;5.13;4.30;;;10.40;99.90;;;;;;5076770;28;20049;-85
2023/10/25 08:51:00;;;;;;;5.85;3.90;;;10.30;99.90;;;;;;5078221;28;20048;-85
2023/10/25 08:53:53;;;;;;;5.95;4.35;;;10.20;99.90;;;;;;5093132;28;20490;-86
2023/10/25 08:56:46;;;;;;;5.07;4.30;;;10.30;99.90;;;;;;5088084;28;20053;-85
2023/10/25 08:59:45;;;;;;;5.68;4.93;;;10.30;99.90;;;;;;5081850;28;20040;-87
2023/10/25 09:02:39;;;;;;;9.52;5.07;;;10.30;99.90;;;;;;5085692;28;20048;-85
2023/10/25 09:05:41;;;;;;;5.28;4.28;;;10.30;99.90;;;;;;5095818;28;20044;-87
2023/10/25 09:08:30;;;;;;;5.70;5.07;;;10.30;99.90;;;;;;5109111;28;20055;-87
2023/10/25 09:11:20;;;;;;;8.10;5.32;;;10.30;99.90;;;;;;5070035;28;20049;-87
2023/10/25 09:14:10;;;;;;;8.85;6.40;;;10.20;99.90;;;;;;5082028;28;20115;-87
2023/10/25 09:16:58;;;;;;;9.88;6.57;;;10.20;99.90;;;;;;5096973;28;20048;-85
2023/10/25 09:19:47;;;;;;;9.15;6.00;;;10.10;99.90;;;;;;5080497;28;20048;-89
2023/10/25 09:22:37;;;;;;;9.80;7.18;;;10.10;99.90;;;;;;5102353;28;20044;-87
2023/10/25 09:25:29;;;;;;;9.35;7.38;;;10.20;99.90;;;;;;5091508;28;21012;-84
2023/10/25 09:28:27;;;;;;;5.55;4.93;;;10.20;99.90;;;;;;5104732;28;20052;-86
2023/10/25 09:31:23;;;;;;;9.63;6.45;;;10.20;99.90;;;;;;5093991;28;20045;-85
2023/10/25 09:34:15;;;;;;;7.25;6.47;;;10.30;99.90;;;;;;5108728;28;20103;-87
2023/10/25 09:37:09;;;;;;;9.70;7.10;;;10.40;99.90;;;;;;5096600;28;20055;-83
2023/10/25 09:39:59;;;;;;;7.85;5.97;;;10.50;99.90;;;;;;5098123;28;20045;-80
2023/10/25 09:42:55;;;;;;;6.75;5.82;;;10.70;99.90;;;;;;5089012;28;20098;-88
2023/10/25 09:45:49;;;;;;;5.78;5.28;;;11.10;99.90;;;;;;5082818;28;20044;-85
2023/10/25 09:48:47;;;;;;;5.65;4.03;;;11.60;99.90;;;;;;5096916;28;20051;-82
2023/10/25 09:51:59;;;;;;;4.63;3.53;;;11.90;99.90;;;;;;5114333;27;20032;-87
2023/10/25 09:54:49;;;;;;;3.33;2.92;;;13.10;99.90;;;;;;5089948;28;20040;-87
2023/10/25 09:57:38;;;;;;;2.45;1.95;;;15.40;99.90;;;;;;5096308;28;20056;-88
2023/10/25 10:00:29;;;;;;;2.60;2.40;;;16.20;99.90;;;;;;5102918;28;20052;-86
2023/10/25 10:03:32;;;;;;;2.22;2.03;;;16.00;99.90;;;;;;5091371;28;20044;-79
2023/10/25 10:06:34;;;;;;;2.88;2.40;;;15.50;99.90;;;;;;5095374;28;20067;-87
2023/10/25 10:09:50;;;;;;;3.85;2.08;;;14.70;99.90;;;;;;5088450;28;20055;-88
2023/10/25 10:12:38;;;;;;;4.00;2.20;;;13.80;99.90;;;;;;5088286;28;20040;-88
2023/10/25 10:16:15;;;;;;;1.90;1.80;;;13.60;99.90;;;;;;5079401;28;20048;-86
2023/10/25 10:19:03;;;;;;;3.22;2.45;;;13.00;99.90;;;;;;5087413;28;20107;-80
2023/10/25 10:22:13;;;;;;;2.17;1.98;;;12.70;1.00;;;;;;5105221;28;20032;-81
2023/10/25 10:25:03;;;;;;;2.60;2.10;;;12.80;1.00;;;;;;5098294;28;20031;-78
2023/10/25 10:28:01;;;;;;;2.47;2.05;;;12.60;99.90;;;;;;5098380;28;20044;-85
2023/10/25 10:30:48;;;;;;;2.25;1.80;;;12.50;99.90;;;;;;5092066;28;20467;-83
2023/10/25 10:33:46;;;;;;;1.67;1.58;;;12.50;1.00;;;;;;5083365;28;20048;-87
2023/10/25 10:36:36;;;;;;;2.85;1.90;;;12.60;21.80;;;;;;5067166;28;20489;-87
2023/10/25 10:39:29;;;;;;;2.47;1.60;;;12.80;99.90;;;;;;5095836;28;20051;-87
2023/10/25 10:42:20;;;;;;;2.28;1.70;;;12.90;99.90;;;;;;5094577;28;20071;-81
2023/10/25 10:45:11;;;;;;;1.60;1.50;;;12.90;64.80;;;;;;5110592;28;20048;-87
2023/10/25 10:48:19;;;;;;;4.50;1.63;;;12.90;1.00;;;;;;5092843;28;20036;-85
2023/10/25 10:51:09;;;;;;;2.63;1.45;;;12.90;1.00;;;;;;5086612;28;20036;-86
2023/10/25 10:53:57;;;;;;;1.60;1.40;;;12.80;1.00;;;;;;5094992;28;20075;-87
2023/10/25 10:56:44;;;;;;;1.63;1.40;;;12.80;99.90;;;;;;5086169;28;20506;-85
2023/10/25 10:59:35;;;;;;;2.33;1.42;;;12.70;99.90;;;;;;5093928;28;20049;-88
2023/10/25 11:02:22;;;;;;;1.45;1.33;;;12.70;99.90;;;;;;5085940;28;20131;-88
2023/10/25 11:05:10;;;;;;;2.80;1.60;;;12.80;99.90;;;;;;5082088;28;20059;-87
2023/10/25 11:07:57;;;;;;;1.38;1.27;;;12.80;99.90;;;;;;5089401;28;20067;-86
2023/10/25 11:10:45;;;;;;;3.10;1.27;;;12.90;99.90;;;;;;5091225;28;20096;-88
2023/10/25 11:13:35;;;;;;;3.97;1.40;;;13.00;90.20;;;;;;5100513;28;20158;-86
2023/10/25 11:16:23;;;;;;;2.58;1.48;;;13.20;1.00;;;;;;5096973;28;20040;-88
2023/10/25 11:19:10;;;;;;;1.42;1.33;;;13.50;1.00;;;;;;5080377;28;20051;-88
2023/10/25 11:21:58;;;;;;;2.60;0.95;;;14.20;99.90;;;;;;5097240;28;20052;-87
2023/10/25 11:24:50;;;;;;;2.25;1.50;;;14.20;1.00;;;;;;5088533;28;20044;-87
2023/10/25 11:27:40;;;;;;;1.30;1.15;;;14.00;99.90;;;;;;5076727;28;20040;-88
2023/10/25 11:30:28;;;;;;;1.25;1.00;;;14.40;99.90;;;;;;5086592;28;20106;-88
2023/10/25 11:33:19;;;;;;;2.65;0.95;;;14.50;1.00;;;;;;5075949;28;20048;-89
2023/10/25 11:36:06;;;;;;;1.58;1.10;;;14.50;1.00;;;;;;5090711;28;20440;-88
2023/10/25 11:39:08;;;;;;;1.00;0.90;;;14.70;1.00;;;;;;5094839;28;20460;-89
2023/10/25 11:42:00;;;;;;;1.70;0.90;;;15.10;99.90;;;;;;5109133;28;20047;-87
2023/10/25 11:44:48;;;;;;;1.60;0.95;;;15.40;99.90;;;;;;5100267;28;20039;-86
2023/10/25 11:47:37;;;;;;;3.13;0.80;;;16.80;87.60;;;;;;5116102;27;20163;-88
2023/10/25 11:50:25;;;;;;;1.13;0.65;;;17.40;99.90;;;;;;5112756;28;20134;-87
2023/10/25 11:53:14;;;;;;;1.33;0.80;;;17.00;99.90;;;;;;5112647;28;20040;-86
2023/10/25 11:56:01;;;;;;;2.67;0.80;;;16.00;99.90;;;;;;5110208;27;20403;-87
2023/10/25 11:58:49;;;;;;;1.17;0.90;;;15.00;99.90;;;;;;5100227;27;20059;-83
2023/10/25 12:01:36;;;;;;;1.63;1.00;;;14.70;99.90;;;;;;5097171;28;20196;-84
2023/10/25 12:04:24;;;;;;;1.02;0.90;;;14.60;99.90;;;;;;5090705;28;20043;-84
2023/10/25 12:07:11;;;;;;;1.67;0.95;;;14.60;99.90;;;;;;5101388;28;20460;-82
2023/10/25 12:09:59;;;;;;;1.15;0.70;;;14.60;1.00;;;;;;5096079;28;20044;-83
2023/10/25 12:12:49;;;;;;;2.25;0.98;;;14.70;99.90;;;;;;5102013;28;20461;-86
2023/10/25 12:15:37;;;;;;;0.98;0.80;;;14.80;1.00;;;;;;5102475;28;20095;-88
2023/10/25 12:18:26;;;;;;;1.52;0.90;;;14.70;99.90;;;;;;5118454;27;20047;-85
2023/10/25 12:21:16;;;;;;;2.05;0.80;;;14.60;99.90;;;;;;5101312;28;20040;-81
2023/10/25 12:24:07;;;;;;;2.15;0.60;;;14.60;99.90;;;;;;5104449;28;20413;-87
2023/10/25 12:26:54;;;;;;;1.08;0.60;;;14.50;99.90;;;;;;5103341;28;20447;-88
2023/10/25 12:29:44;;;;;;;1.98;0.90;;;14.50;99.90;;;;;;5095546;28;20344;-86
2023/10/25 12:32:35;;;;;;;2.78;0.88;;;14.50;99.90;;;;;;5098717;28;20044;-85
2023/10/25 12:35:25;;;;;;;2.15;0.70;;;14.40;99.90;;;;;;5100659;28;20101;-86
2023/10/25 12:38:13;;;;;;;1.05;0.70;;;14.40;99.90;;;;;;5100868;28;20043;-85
2023/10/25 12:41:03;;;;;;;0.57;0.57;;;14.10;99.90;;;;;;5112280;28;20040;-86
2023/10/25 12:43:52;;;;;;;1.13;0.70;;;13.90;1.00;;;;;;5099629;27;20047;-86
2023/10/25 12:46:43;;;;;;;2.47;0.80;;;13.90;1.00;;;;;;5080654;28;20040;-85
2023/10/25 12:49:33;;;;;;;0.80;0.80;;;13.90;1.00;;;;;;5093027;28;20056;-85
2023/10/25 12:52:22;;;;;;;0.65;0.65;;;13.90;1.00;;;;;;5097457;28;20464;-86
2023/10/25 12:55:11;;;;;;;2.72;1.13;;;14.20;1.00;;;;;;5084105;28;20044;-85
2023/10/25 12:58:02;;;;;;;0.88;0.73;;;14.70;99.90;;;;;;5113770;28;20064;-84
2023/10/25 13:00:49;;;;;;;2.83;1.10;;;15.10;99.90;;;;;;5108000;27;20059;-85
2023/10/25 13:03:41;;;;;;;2.22;0.90;;;15.10;99.90;;;;;;5109975;28;21112;-87
2023/10/25 13:06:33;;;;;;;0.85;0.75;;;14.90;99.90;;;;;;5112484;28;20146;-84
2023/10/25 13:09:21;;;;;;;1.40;0.80;;;14.70;99.90;;;;;;5111678;28;20047;-84
2023/10/25 13:12:12;;;;;;;0.85;0.80;;;14.70;99.90;;;;;;5097490;28;20118;-88
2023/10/25 13:15:02;;;;;;;2.47;0.90;;;14.80;99.90;;;;;;5091194;28;20040;-86
2023/10/25 13:17:50;;;;;;;1.10;0.98;;;14.60;99.90;;;;;;5079815;28;20055;-86
2023/10/25 13:20:38;;;;;;;2.35;0.90;;;14.50;99.90;;;;;;5097881;28;20092;-84
2023/10/25 13:23:27;;;;;;;1.02;0.93;;;14.40;99.90;;;;;;5103041;28;20044;-84
2023/10/25 13:26:14;;;;;;;1.55;1.00;;;14.50;99.90;;;;;;5098002;28;21337;-86
2023/10/25 13:29:02;;;;;;;0.77;0.77;;;14.50;99.90;;;;;;5085046;28;20059;-85
2023/10/25 13:31:52;;;;;;;1.20;0.90;;;14.40;99.90;;;;;;5104624;28;20036;-85
2023/10/25 13:34:42;;;;;;;0.77;0.77;;;14.40;99.90;;;;;;5098289;28;20443;-86
2023/10/25 13:37:31;;;;;;;1.15;0.98;;;14.40;99.90;;;;;;5084908;28;20055;-85
2023/10/25 13:40:19;;;;;;;1.15;1.00;;;14.40;99.90;;;;;;5113979;28;20043;-85
2023/10/25 13:43:06;;;;;;;1.60;1.20;;;14.30;99.90;;;;;;5112461;28;20048;-82
2023/10/25 13:45:54;;;;;;;1.45;0.75;;;14.20;99.90;;;;;;5097285;28;20036;-83
2023/10/25 13:48:44;;;;;;;2.97;1.17;;;14.30;99.90;;;;;;5095851;28;20714;-83
2023/10/25 13:51:32;;;;;;;3.75;1.02;;;14.40;99.90;;;;;;5103254;28;20412;-85
2023/10/25 13:54:20;;;;;;;2.60;1.00;;;14.20;99.90;;;;;;5113963;27;20138;-83
2023/10/25 13:57:07;;;;;;;2.85;1.67;;;13.90;1.00;;;;;;5128581;27;20078;-85
2023/10/25 13:59:56;;;;;;;2.35;1.88;;;13.80;1.00;;;;;;5121806;27;20329;-85
2023/10/25 14:02:46;;;;;;;2.50;2.00;;;14.00;1.00;;;;;;5138796;27;20061;-85
2023/10/25 14:05:40;;;;;;;2.70;1.13;;;14.30;1.00;;;;;;5095523;28;20127;-86
2023/10/25 14:08:27;;;;;;;2.08;1.20;;;14.10;1.00;;;;;;5087743;28;20044;-85
2023/10/25 14:11:15;;;;;;;3.70;1.40;;;14.00;1.00;;;;;;5095181;28;20059;-86
2023/10/25 14:14:07;;;;;;;2.17;1.48;;;13.90;25.60;;;;;;5115224;27;20140;-86
2023/10/25 14:16:55;;;;;;;2.00;1.40;;;13.80;43.50;;;;;;5097579;28;20044;-84
2023/10/25 14:19:47;;;;;;;1.83;1.40;;;13.70;99.90;;;;;;5109265;28;20032;-84
2023/10/25 14:22:37;;;;;;;3.42;1.50;;;13.50;99.90;;;;;;5109332;28;20040;-85
2023/10/25 14:25:27;;;;;;;5.13;1.60;;;13.30;99.90;;;;;;5095913;28;20040;-84
2023/10/25 14:28:19;;;;;;;3.40;1.67;;;13.30;1.00;;;;;;5113996;27;20048;-84
2023/10/25 14:31:06;;;;;;;3.08;2.08;;;13.20;99.90;;;;;;5103113;28;20446;-84
2023/10/25 14:33:54;;;;;;;2.97;1.30;;;13.10;99.90;;;;;;5106955;27;20455;-84
2023/10/25 14:36:44;;;;;;;2.25;1.50;;;13.00;99.90;;;;;;5097958;28;20054;-86